createdAt,value
2019-02-06T00:00:05.059Z,59.83
2019-02-06T00:00:45.662Z,59.83
2019-02-06T00:01:26.275Z,59.93
2019-02-06T00:02:06.931Z,59.64
2019-02-06T00:02:47.541Z,59.93
2019-02-06T00:03:28.226Z,60.12
2019-02-06T00:04:08.876Z,59.93
2019-02-06T00:04:49.494Z,60.22
2019-02-06T00:05:30.154Z,59.83
2019-02-06T00:06:10.761Z,60.5
2019-02-06T00:06:51.384Z,60.6
2019-02-06T00:07:32.041Z,60.41
2019-02-06T00:08:12.686Z,60.12
2019-02-06T00:08:53.292Z,59.93
2019-02-06T00:09:33.951Z,60.22
2019-02-06T00:10:14.535Z,60.03
2019-02-06T00:10:55.267Z,59.83
2019-02-06T00:11:35.851Z,60.41
2019-02-06T00:12:16.532Z,59.93
2019-02-06T00:12:57.160Z,60.5
2019-02-06T00:13:37.767Z,60.31
2019-02-06T00:14:18.400Z,59.93
2019-02-06T00:14:59.025Z,60.03
2019-02-06T00:15:39.610Z,60.6
2019-02-06T00:16:20.253Z,60.5
2019-02-06T00:17:00.868Z,59.93
2019-02-06T00:17:41.477Z,60.12
2019-02-06T00:18:22.102Z,60.22
2019-02-06T00:19:02.763Z,60.6
2019-02-06T00:19:43.330Z,60.12
2019-02-06T00:20:23.937Z,60.6
2019-02-06T00:21:04.547Z,59.83
2019-02-06T00:21:45.163Z,59.83
2019-02-06T00:22:25.771Z,59.83
2019-02-06T00:23:06.385Z,60.6
2019-02-06T00:23:47.015Z,59.83
2019-02-06T00:24:27.687Z,59.83
2019-02-06T00:25:08.279Z,59.83
2019-02-06T00:25:48.919Z,59.83
2019-02-06T00:26:29.494Z,59.83
2019-02-06T00:27:10.098Z,60.22
2019-02-06T00:27:50.709Z,60.41
2019-02-06T00:28:31.347Z,60.22
2019-02-06T00:29:11.949Z,60.6
2019-02-06T00:29:52.547Z,60.03
2019-02-06T00:30:33.181Z,60.41
2019-02-06T00:31:13.817Z,60.41
2019-02-06T00:31:54.642Z,60.41
2019-02-06T00:32:35.227Z,60.6
2019-02-06T00:33:15.853Z,60.22
2019-02-06T00:33:56.457Z,60.22
2019-02-06T00:34:37.073Z,60.6
2019-02-06T00:35:25.446Z,60.41
2019-02-06T00:35:58.289Z,60.5
2019-02-06T00:36:38.888Z,60.41
2019-02-06T00:37:19.501Z,60.5
2019-02-06T00:38:00.093Z,60.5
2019-02-06T00:38:40.725Z,60.12
2019-02-06T00:39:21.361Z,60.5
2019-02-06T00:40:02.011Z,59.93
2019-02-06T00:40:42.662Z,60.5
2019-02-06T00:41:23.332Z,60.22
2019-02-06T00:42:04.051Z,60.03
2019-02-06T00:42:44.653Z,60.22
2019-02-06T00:43:25.299Z,60.5
2019-02-06T00:44:06.126Z,60.22
2019-02-06T00:44:46.781Z,60.41
2019-02-06T00:45:27.679Z,60.22
2019-02-06T00:46:08.295Z,60.31
2019-02-06T00:46:48.894Z,60.22
2019-02-06T00:47:29.542Z,60.41
2019-02-06T00:48:10.157Z,60.31
2019-02-06T00:48:50.837Z,60.22
2019-02-06T00:49:31.423Z,60.6
2019-02-06T00:50:12.016Z,60.41
2019-02-06T00:50:52.634Z,60.5
2019-02-06T00:51:33.219Z,60.31
2019-02-06T00:52:13.819Z,60.03
2019-02-06T00:52:54.418Z,60.6
2019-02-06T00:53:35.019Z,60.5
2019-02-06T00:54:15.617Z,60.6
2019-02-06T00:54:56.205Z,60.41
2019-02-06T00:55:36.840Z,60.6
2019-02-06T00:56:17.480Z,60.31
2019-02-06T00:56:58.086Z,60.6
2019-02-06T00:57:38.778Z,60.22
2019-02-06T00:58:19.393Z,59.83
2019-02-06T00:58:59.983Z,60.41
2019-02-06T00:59:40.591Z,60.5
2019-02-06T01:00:21.177Z,60.41
2019-02-06T01:01:01.783Z,60.41
2019-02-06T01:01:42.383Z,60.22
2019-02-06T01:02:22.970Z,60.12
2019-02-06T01:03:04.209Z,60.6
2019-02-06T01:03:45.288Z,60.41
2019-02-06T01:04:25.937Z,60.6
2019-02-06T01:05:06.523Z,60.6
2019-02-06T01:05:47.133Z,60.5
2019-02-06T01:06:27.725Z,60.31
2019-02-06T01:07:08.307Z,60.31
2019-02-06T01:07:48.903Z,60.41
2019-02-06T01:08:29.598Z,60.5
2019-02-06T01:09:10.123Z,60.41
2019-02-06T01:09:50.777Z,60.31
2019-02-06T01:10:31.441Z,60.22
2019-02-06T01:11:12.047Z,60.5
2019-02-06T01:11:52.775Z,60.03
2019-02-06T01:12:33.537Z,60.22
2019-02-06T01:13:14.042Z,60.6
2019-02-06T01:13:54.885Z,60.31
2019-02-06T01:14:35.533Z,60.03
2019-02-06T01:15:16.369Z,60.41
2019-02-06T01:15:56.968Z,60.41
2019-02-06T01:16:37.693Z,60.5
2019-02-06T01:17:18.164Z,60.12
2019-02-06T01:17:58.761Z,60.12
2019-02-06T01:18:39.365Z,60.12
2019-02-06T01:19:19.961Z,60.12
2019-02-06T01:20:00.579Z,60.12
2019-02-06T01:20:41.191Z,60.22
2019-02-06T01:21:21.795Z,60.6
2019-02-06T01:22:02.411Z,60.5
2019-02-06T01:22:43.043Z,60.6
2019-02-06T01:23:23.655Z,60.41
2019-02-06T01:24:04.243Z,60.03
2019-02-06T01:24:44.847Z,59.93
2019-02-06T01:25:25.455Z,60.5
2019-02-06T01:26:06.174Z,60.5
2019-02-06T01:26:46.787Z,60.6
2019-02-06T01:27:27.405Z,59.83
2019-02-06T01:28:08.026Z,60.12
2019-02-06T01:28:48.613Z,60.22
2019-02-06T01:29:29.205Z,60.22
2019-02-06T01:30:09.833Z,60.03
2019-02-06T01:30:50.481Z,60.03
2019-02-06T01:31:31.071Z,59.83
2019-02-06T01:32:11.688Z,60.22
2019-02-06T01:32:52.279Z,60.03
2019-02-06T01:33:32.883Z,59.93
2019-02-06T01:34:13.505Z,60.12
2019-02-06T01:34:54.108Z,60.12
2019-02-06T01:35:34.717Z,59.93
2019-02-06T01:36:15.315Z,60.03
2019-02-06T01:36:55.925Z,60.12
2019-02-06T01:37:36.528Z,60.12
2019-02-06T01:38:17.157Z,60.22
2019-02-06T01:38:57.801Z,59.83
2019-02-06T01:39:38.412Z,60.03
2019-02-06T01:40:18.997Z,60.03
2019-02-06T01:40:59.583Z,59.93
2019-02-06T01:41:40.167Z,59.83
2019-02-06T01:42:20.759Z,59.74
2019-02-06T01:43:01.378Z,59.36
2019-02-06T01:43:42.032Z,59.45
2019-02-06T01:44:22.623Z,59.64
2019-02-06T01:45:03.229Z,59.83
2019-02-06T01:45:43.825Z,59.74
2019-02-06T01:46:24.442Z,59.45
2019-02-06T01:47:05.035Z,59.93
2019-02-06T01:47:45.655Z,59.55
2019-02-06T01:48:26.244Z,59.45
2019-02-06T01:49:06.838Z,59.93
2019-02-06T01:49:47.432Z,59.45
2019-02-06T01:50:28.031Z,59.64
2019-02-06T01:51:08.716Z,59.55
2019-02-06T01:51:49.232Z,59.74
2019-02-06T01:52:29.823Z,59.74
2019-02-06T01:53:10.406Z,59.74
2019-02-06T01:53:50.997Z,59.55
2019-02-06T01:54:31.591Z,59.64
2019-02-06T01:55:12.199Z,59.74
2019-02-06T01:55:52.799Z,59.93
2019-02-06T01:56:33.401Z,59.45
2019-02-06T01:57:14.005Z,59.74
2019-02-06T01:57:54.599Z,59.74
2019-02-06T01:58:35.206Z,59.64
2019-02-06T01:59:15.810Z,59.64
2019-02-06T01:59:56.403Z,59.74
2019-02-06T02:00:37.031Z,59.93
2019-02-06T02:01:17.639Z,59.45
2019-02-06T02:01:58.245Z,59.93
2019-02-06T02:02:38.861Z,60.12
2019-02-06T02:03:19.455Z,60.03
2019-02-06T02:04:00.049Z,59.83
2019-02-06T02:04:40.649Z,60.03
2019-02-06T02:05:21.248Z,59.83
2019-02-06T02:06:02.816Z,59.83
2019-02-06T02:06:42.453Z,60.12
2019-02-06T02:07:23.037Z,59.93
2019-02-06T02:08:03.641Z,59.93
2019-02-06T02:08:44.245Z,60.12
2019-02-06T02:09:24.957Z,60.03
2019-02-06T02:10:05.452Z,59.74
2019-02-06T02:10:46.043Z,59.93
2019-02-06T02:11:26.632Z,59.74
2019-02-06T02:12:07.241Z,59.83
2019-02-06T02:12:47.838Z,59.93
2019-02-06T02:13:28.563Z,59.93
2019-02-06T02:14:09.061Z,59.93
2019-02-06T02:14:49.652Z,59.93
2019-02-06T02:15:30.253Z,59.93
2019-02-06T02:16:10.856Z,59.93
2019-02-06T02:16:51.537Z,59.83
2019-02-06T02:17:32.143Z,60.03
2019-02-06T02:18:12.735Z,60.12
2019-02-06T02:18:53.333Z,60.12
2019-02-06T02:19:33.929Z,59.55
2019-02-06T02:20:14.529Z,59.55
2019-02-06T02:20:55.129Z,59.45
2019-02-06T02:21:35.740Z,59.83
2019-02-06T02:22:16.345Z,59.93
2019-02-06T02:22:56.953Z,59.83
2019-02-06T02:23:37.555Z,59.83
2019-02-06T02:24:18.153Z,59.45
2019-02-06T02:24:58.744Z,59.45
2019-02-06T02:25:39.329Z,59.55
2019-02-06T02:26:19.929Z,59.55
2019-02-06T02:27:00.561Z,59.55
2019-02-06T02:27:41.272Z,59.45
2019-02-06T02:28:21.767Z,59.36
2019-02-06T02:29:02.359Z,59.55
2019-02-06T02:29:42.957Z,59.45
2019-02-06T02:30:23.555Z,59.45
2019-02-06T02:31:04.199Z,59.36
2019-02-06T02:31:44.745Z,59.64
2019-02-06T02:32:25.343Z,59.74
2019-02-06T02:33:05.950Z,59.55
2019-02-06T02:33:46.557Z,59.55
2019-02-06T02:34:27.173Z,59.55
2019-02-06T02:35:07.769Z,59.36
2019-02-06T02:35:48.359Z,59.45
2019-02-06T02:36:28.967Z,59.36
2019-02-06T02:37:09.566Z,59.64
2019-02-06T02:37:50.175Z,59.55
2019-02-06T02:38:30.792Z,59.55
2019-02-06T02:39:11.413Z,59.64
2019-02-06T02:39:52.023Z,59.64
2019-02-06T02:40:32.618Z,59.64
2019-02-06T02:41:13.237Z,59.06
2019-02-06T02:41:53.841Z,59.64
2019-02-06T02:42:34.439Z,59.06
2019-02-06T02:43:15.037Z,59.26
2019-02-06T02:43:55.637Z,59.64
2019-02-06T02:44:36.270Z,59.64
2019-02-06T02:45:16.908Z,59.64
2019-02-06T02:45:57.555Z,59.55
2019-02-06T02:46:38.171Z,59.55
2019-02-06T02:47:18.769Z,59.55
2019-02-06T02:47:59.355Z,59.45
2019-02-06T02:48:39.943Z,59.06
2019-02-06T02:49:20.526Z,59.64
2019-02-06T02:50:01.126Z,60.12
2019-02-06T02:50:41.727Z,59.06
2019-02-06T02:51:22.355Z,59.55
2019-02-06T02:52:02.963Z,60.22
2019-02-06T02:52:43.579Z,59.45
2019-02-06T02:53:24.175Z,59.26
2019-02-06T02:54:04.779Z,59.16
2019-02-06T02:54:45.389Z,59.26
2019-02-06T02:55:25.993Z,60.22
2019-02-06T02:56:06.588Z,59.16
2019-02-06T02:56:47.225Z,59.16
2019-02-06T02:57:27.832Z,59.16
2019-02-06T02:58:08.422Z,59.64
2019-02-06T02:58:49.023Z,60.12
2019-02-06T02:59:29.651Z,60.12
2019-02-06T03:00:10.279Z,59.26
2019-02-06T03:00:50.907Z,59.55
2019-02-06T03:01:31.518Z,59.16
2019-02-06T03:02:12.127Z,59.16
2019-02-06T03:02:52.733Z,60.03
2019-02-06T03:03:33.369Z,59.16
2019-02-06T03:04:13.965Z,59.26
2019-02-06T03:04:54.591Z,59.64
2019-02-06T03:05:35.199Z,59.52
2019-02-06T03:06:27.441Z,60.03
2019-02-06T03:06:56.401Z,59.26
2019-02-06T03:07:37.025Z,59.45
2019-02-06T03:08:17.623Z,59.64
2019-02-06T03:08:58.227Z,59.55
2019-02-06T03:09:38.805Z,59.55
2019-02-06T03:10:19.437Z,59.16
2019-02-06T03:11:00.033Z,59.55
2019-02-06T03:11:40.629Z,59.55
2019-02-06T03:12:21.234Z,59.26
2019-02-06T03:13:01.865Z,59.45
2019-02-06T03:13:42.464Z,59.55
2019-02-06T03:14:23.055Z,59.45
2019-02-06T03:15:03.661Z,59.93
2019-02-06T03:15:44.258Z,59.64
2019-02-06T03:16:24.851Z,59.36
2019-02-06T03:17:05.445Z,59.55
2019-02-06T03:17:46.075Z,59.16
2019-02-06T03:18:26.655Z,59.45
2019-02-06T03:19:07.249Z,59.64
2019-02-06T03:19:47.848Z,59.55
2019-02-06T03:20:28.457Z,59.55
2019-02-06T03:21:09.067Z,59.16
2019-02-06T03:21:49.692Z,59.16
2019-02-06T03:22:32.831Z,59.26
2019-02-06T03:23:10.905Z,59.61
2019-02-06T03:23:51.523Z,59.26
2019-02-06T03:24:32.143Z,59.55
2019-02-06T03:25:12.796Z,59.26
2019-02-06T03:25:53.416Z,59.26
2019-02-06T03:26:34.006Z,59.55
2019-02-06T03:27:14.609Z,59.55
2019-02-06T03:27:55.227Z,59.36
2019-02-06T03:28:35.863Z,59.45
2019-02-06T03:29:16.461Z,59.55
2019-02-06T03:29:57.059Z,59.52
2019-02-06T03:30:37.668Z,59.55
2019-02-06T03:31:18.276Z,59.45
2019-02-06T03:31:58.883Z,59.52
2019-02-06T03:32:39.488Z,59.16
2019-02-06T03:33:20.076Z,59.45
2019-02-06T03:34:00.700Z,59.42
2019-02-06T03:34:41.297Z,59.55
2019-02-06T03:35:21.907Z,59.45
2019-02-06T03:36:02.549Z,59.55
2019-02-06T03:36:43.161Z,59.36
2019-02-06T03:37:23.768Z,59.64
2019-02-06T03:38:05.286Z,59.52
2019-02-06T03:38:45.896Z,59.64
2019-02-06T03:39:26.495Z,59.55
2019-02-06T03:40:07.076Z,59.55
2019-02-06T03:40:47.688Z,59.36
2019-02-06T03:41:28.283Z,59.55
2019-02-06T03:42:08.876Z,59.55
2019-02-06T03:42:49.492Z,59.42
2019-02-06T03:43:30.080Z,59.36
2019-02-06T03:44:10.691Z,59.36
2019-02-06T03:44:51.295Z,59.55
2019-02-06T03:45:31.900Z,59.36
2019-02-06T03:46:12.487Z,59.64
2019-02-06T03:46:53.101Z,59.45
2019-02-06T03:47:33.711Z,59.26
2019-02-06T03:48:14.311Z,59.26
2019-02-06T03:48:54.896Z,59.55
2019-02-06T03:49:35.495Z,59.55
2019-02-06T03:50:16.172Z,59.23
2019-02-06T03:50:56.799Z,59.26
2019-02-06T03:51:37.397Z,59.23
2019-02-06T03:52:18.015Z,59.42
2019-02-06T03:52:58.613Z,59.16
2019-02-06T03:53:39.225Z,59.52
2019-02-06T03:54:19.820Z,59.13
2019-02-06T03:55:00.420Z,59.52
2019-02-06T03:55:41.031Z,59.52
2019-02-06T03:56:21.633Z,59.42
2019-02-06T03:57:02.224Z,59.52
2019-02-06T03:57:42.827Z,59.33
2019-02-06T03:58:23.432Z,59.42
2019-02-06T03:59:04.026Z,59.23
2019-02-06T03:59:44.632Z,59.16
2019-02-06T04:00:25.235Z,59.23
2019-02-06T04:01:05.851Z,59.26
2019-02-06T04:01:46.461Z,59.13
2019-02-06T04:02:27.089Z,59.52
2019-02-06T04:03:07.695Z,59.33
2019-02-06T04:03:48.298Z,59.13
2019-02-06T04:04:28.890Z,59.52
2019-02-06T04:05:09.539Z,59.36
2019-02-06T04:05:50.113Z,59.52
2019-02-06T04:06:30.701Z,59.42
2019-02-06T04:07:11.311Z,59.23
2019-02-06T04:07:51.891Z,59.13
2019-02-06T04:08:32.499Z,59.16
2019-02-06T04:09:13.107Z,59.33
2019-02-06T04:09:53.711Z,59.23
2019-02-06T04:10:34.323Z,59.23
2019-02-06T04:11:14.932Z,59.23
2019-02-06T04:11:55.525Z,59.42
2019-02-06T04:12:36.131Z,59.33
2019-02-06T04:13:16.768Z,59.23
2019-02-06T04:13:57.381Z,59.55
2019-02-06T04:14:37.969Z,59.42
2019-02-06T04:15:18.594Z,59.52
2019-02-06T04:15:59.174Z,59.33
2019-02-06T04:16:39.771Z,59.55
2019-02-06T04:17:20.395Z,59.45
2019-02-06T04:18:00.992Z,59.36
2019-02-06T04:18:41.633Z,59.23
2019-02-06T04:19:22.249Z,59.52
2019-02-06T04:20:02.863Z,59.52
2019-02-06T04:20:43.552Z,59.13
2019-02-06T04:21:24.092Z,59.61
2019-02-06T04:22:04.711Z,59.26
2019-02-06T04:22:45.313Z,59.33
2019-02-06T04:23:25.926Z,59.52
2019-02-06T04:24:06.544Z,59.45
2019-02-06T04:24:48.948Z,59.42
2019-02-06T04:25:27.747Z,59.52
2019-02-06T04:26:08.355Z,59.52
2019-02-06T04:26:48.943Z,59.42
2019-02-06T04:27:29.522Z,59.45
2019-02-06T04:28:10.109Z,59.26
2019-02-06T04:28:50.729Z,59.45
2019-02-06T04:29:31.332Z,59.55
2019-02-06T04:30:11.921Z,59.16
2019-02-06T04:30:52.541Z,59.55
2019-02-06T04:31:33.155Z,59.33
2019-02-06T04:32:13.749Z,59.33
2019-02-06T04:32:54.340Z,59.16
2019-02-06T04:33:34.937Z,59.52
2019-02-06T04:34:15.533Z,59.23
2019-02-06T04:34:56.139Z,59.45
2019-02-06T04:35:36.727Z,59.26
2019-02-06T04:36:17.400Z,59.45
2019-02-06T04:37:06.061Z,59.36
2019-02-06T04:37:38.613Z,59.52
2019-02-06T04:38:19.187Z,59.55
2019-02-06T04:38:59.791Z,59.16
2019-02-06T04:39:40.394Z,59.16
2019-02-06T04:40:20.983Z,59.13
2019-02-06T04:41:01.580Z,59.33
2019-02-06T04:41:42.186Z,59.42
2019-02-06T04:42:22.776Z,59.52
2019-02-06T04:43:03.369Z,59.52
2019-02-06T04:43:43.976Z,59.33
2019-02-06T04:44:24.578Z,59.33
2019-02-06T04:45:05.210Z,59.16
2019-02-06T04:45:45.811Z,59.26
2019-02-06T04:46:26.421Z,59.52
2019-02-06T04:47:07.062Z,59.16
2019-02-06T04:47:47.680Z,59.04
2019-02-06T04:48:28.279Z,59.16
2019-02-06T04:49:08.915Z,59.36
2019-02-06T04:49:49.514Z,59.52
2019-02-06T04:50:30.126Z,59.52
2019-02-06T04:51:10.714Z,59.13
2019-02-06T04:51:51.312Z,59.52
2019-02-06T04:52:31.937Z,59.55
2019-02-06T04:53:12.573Z,59.06
2019-02-06T04:53:53.199Z,59.36
2019-02-06T04:54:33.838Z,59.33
2019-02-06T04:55:14.455Z,59.55
2019-02-06T04:55:55.045Z,59.23
2019-02-06T04:56:35.649Z,59.36
2019-02-06T04:57:16.261Z,59.13
2019-02-06T04:57:56.859Z,59.23
2019-02-06T04:58:37.452Z,59.26
2019-02-06T04:59:18.102Z,59.04
2019-02-06T04:59:58.680Z,59.23
2019-02-06T05:00:39.309Z,59.23
2019-02-06T05:01:19.925Z,59.16
2019-02-06T05:02:00.508Z,59.13
2019-02-06T05:02:41.119Z,59.52
2019-02-06T05:03:21.714Z,59.52
2019-02-06T05:04:02.330Z,59.52
2019-02-06T05:04:42.926Z,59.23
2019-02-06T05:05:23.515Z,59.42
2019-02-06T05:06:04.118Z,59.23
2019-02-06T05:06:44.717Z,59.52
2019-02-06T05:07:25.312Z,59.52
2019-02-06T05:08:05.940Z,59.42
2019-02-06T05:08:46.554Z,59.42
2019-02-06T05:09:27.158Z,59.45
2019-02-06T05:10:07.786Z,59.42
2019-02-06T05:10:48.385Z,59.42
2019-02-06T05:11:28.998Z,59.23
2019-02-06T05:12:09.742Z,59.33
2019-02-06T05:12:50.221Z,59.45
2019-02-06T05:13:30.855Z,58.94
2019-02-06T05:14:11.465Z,59.04
2019-02-06T05:14:52.084Z,59.13
2019-02-06T05:15:32.692Z,59.42
2019-02-06T05:16:13.312Z,59.13
2019-02-06T05:16:53.920Z,59.23
2019-02-06T05:17:34.523Z,59.33
2019-02-06T05:18:15.117Z,59.16
2019-02-06T05:18:55.711Z,59.13
2019-02-06T05:19:36.337Z,59.33
2019-02-06T05:20:16.957Z,59.42
2019-02-06T05:20:57.580Z,59.13
2019-02-06T05:21:38.175Z,59.42
2019-02-06T05:22:18.784Z,59.23
2019-02-06T05:22:59.393Z,59.13
2019-02-06T05:23:39.999Z,59.13
2019-02-06T05:24:20.593Z,59.42
2019-02-06T05:25:01.190Z,59.42
2019-02-06T05:25:41.787Z,59.04
2019-02-06T05:26:22.388Z,59.33
2019-02-06T05:27:02.996Z,59.33
2019-02-06T05:27:43.601Z,59.23
2019-02-06T05:28:24.207Z,59.52
2019-02-06T05:29:04.810Z,59.13
2019-02-06T05:29:45.422Z,59.42
2019-02-06T05:30:26.006Z,59.04
2019-02-06T05:31:06.690Z,59.42
2019-02-06T05:31:47.295Z,59.42
2019-02-06T05:32:27.855Z,59.52
2019-02-06T05:33:08.460Z,59.04
2019-02-06T05:33:49.060Z,59.13
2019-02-06T05:34:29.665Z,59.33
2019-02-06T05:35:10.294Z,59.04
2019-02-06T05:35:50.871Z,59.04
2019-02-06T05:36:31.470Z,59.42
2019-02-06T05:37:12.086Z,59.52
2019-02-06T05:37:52.720Z,59.04
2019-02-06T05:38:33.328Z,59.33
2019-02-06T05:39:13.913Z,59.52
2019-02-06T05:39:54.549Z,59.52
2019-02-06T05:40:35.144Z,59.42
2019-02-06T05:41:15.729Z,59.42
2019-02-06T05:41:56.333Z,59.04
2019-02-06T05:42:36.933Z,59.52
2019-02-06T05:43:17.531Z,59.13
2019-02-06T05:43:58.136Z,59.33
2019-02-06T05:44:38.784Z,59.42
2019-02-06T05:45:19.393Z,59.61
2019-02-06T05:45:59.996Z,59.71
2019-02-06T05:46:40.608Z,59.52
2019-02-06T05:47:21.236Z,58.94
2019-02-06T05:48:01.859Z,59.52
2019-02-06T05:48:42.451Z,59.42
2019-02-06T05:49:23.047Z,59.23
2019-02-06T05:50:03.656Z,59.13
2019-02-06T05:50:44.257Z,59.52
2019-02-06T05:51:24.865Z,59.33
2019-02-06T05:52:05.478Z,59.04
2019-02-06T05:52:46.096Z,59.42
2019-02-06T05:53:26.716Z,59.42
2019-02-06T05:54:07.320Z,58.94
2019-02-06T05:54:47.911Z,59.52
2019-02-06T05:55:28.528Z,59.13
2019-02-06T05:56:09.138Z,59.23
2019-02-06T05:56:49.776Z,59.52
2019-02-06T05:57:30.376Z,59.52
2019-02-06T05:58:10.981Z,59.33
2019-02-06T05:58:51.586Z,59.04
2019-02-06T05:59:32.207Z,59.33
2019-02-06T06:00:12.794Z,59.33
2019-02-06T06:00:53.418Z,59.42
2019-02-06T06:01:34.017Z,59.13
2019-02-06T06:02:14.609Z,59.42
2019-02-06T06:02:55.222Z,59.33
2019-02-06T06:03:35.833Z,59.42
2019-02-06T06:04:16.433Z,59.04
2019-02-06T06:04:57.102Z,59.42
2019-02-06T06:05:37.693Z,59.61
2019-02-06T06:06:18.321Z,59.42
2019-02-06T06:06:58.929Z,59.04
2019-02-06T06:07:44.920Z,59.23
2019-02-06T06:08:20.116Z,59.23
2019-02-06T06:09:00.715Z,59.33
2019-02-06T06:09:41.328Z,59.13
2019-02-06T06:10:21.934Z,59.52
2019-02-06T06:11:02.534Z,58.94
2019-02-06T06:11:43.140Z,59.42
2019-02-06T06:12:23.730Z,59.52
2019-02-06T06:13:04.325Z,59.52
2019-02-06T06:13:44.944Z,59.42
2019-02-06T06:14:25.564Z,59.52
2019-02-06T06:15:06.140Z,59.52
2019-02-06T06:15:46.754Z,59.04
2019-02-06T06:16:27.365Z,59.13
2019-02-06T06:17:07.960Z,59.52
2019-02-06T06:17:48.552Z,59.42
2019-02-06T06:18:29.144Z,59.33
2019-02-06T06:19:09.756Z,59.04
2019-02-06T06:19:50.360Z,59.42
2019-02-06T06:20:30.957Z,59.33
2019-02-06T06:21:11.566Z,59.52
2019-02-06T06:21:52.182Z,59.42
2019-02-06T06:22:32.779Z,59.42
2019-02-06T06:23:13.367Z,59.52
2019-02-06T06:23:53.966Z,59.52
2019-02-06T06:24:34.572Z,59.42
2019-02-06T06:25:15.213Z,59.52
2019-02-06T06:25:55.814Z,59.33
2019-02-06T06:26:36.430Z,59.33
2019-02-06T06:27:17.039Z,59.42
2019-02-06T06:27:57.633Z,59.33
2019-02-06T06:28:38.260Z,59.23
2019-02-06T06:29:18.883Z,59.33
2019-02-06T06:29:59.466Z,59.42
2019-02-06T06:30:40.063Z,59.33
2019-02-06T06:31:20.704Z,58.84
2019-02-06T06:32:01.307Z,59.42
2019-02-06T06:32:41.900Z,58.94
2019-02-06T06:33:22.530Z,58.84
2019-02-06T06:34:03.156Z,59.52
2019-02-06T06:34:43.859Z,59.52
2019-02-06T06:35:24.378Z,59.52
2019-02-06T06:36:04.967Z,59.52
2019-02-06T06:36:45.673Z,59.52
2019-02-06T06:37:26.162Z,59.52
2019-02-06T06:38:06.754Z,59.33
2019-02-06T06:38:47.352Z,59.52
2019-02-06T06:39:27.960Z,59.42
2019-02-06T06:40:08.578Z,59.04
2019-02-06T06:40:49.178Z,59.42
2019-02-06T06:41:29.774Z,58.94
2019-02-06T06:42:10.359Z,59.52
2019-02-06T06:42:50.947Z,59.61
2019-02-06T06:43:31.538Z,59.52
2019-02-06T06:44:12.154Z,59.52
2019-02-06T06:44:52.764Z,59.42
2019-02-06T06:45:33.396Z,59.42
2019-02-06T06:46:13.971Z,59.04
2019-02-06T06:46:54.587Z,59.52
2019-02-06T06:47:35.225Z,59.42
2019-02-06T06:48:15.822Z,59.52
2019-02-06T06:48:56.420Z,59.42
2019-02-06T06:49:37.086Z,59.42
2019-02-06T06:50:17.676Z,59.52
2019-02-06T06:50:58.286Z,59.52
2019-02-06T06:51:38.890Z,59.52
2019-02-06T06:52:19.490Z,59.52
2019-02-06T06:53:00.087Z,59.61
2019-02-06T06:53:40.694Z,59.42
2019-02-06T06:54:21.328Z,59.52
2019-02-06T06:55:01.942Z,59.52
2019-02-06T06:55:42.545Z,59.52
2019-02-06T06:56:23.138Z,59.52
2019-02-06T06:57:03.753Z,59.04
2019-02-06T06:57:44.410Z,59.23
2019-02-06T06:58:25.028Z,59.42
2019-02-06T06:59:05.639Z,58.94
2019-02-06T06:59:46.660Z,59.52
2019-02-06T07:00:27.264Z,58.84
2019-02-06T07:01:10.750Z,59.04
2019-02-06T07:01:48.457Z,59.13
2019-02-06T07:02:29.083Z,59.52
2019-02-06T07:03:09.684Z,59.52
2019-02-06T07:03:50.416Z,58.84
2019-02-06T07:04:31.012Z,59.04
2019-02-06T07:05:11.614Z,59.33
2019-02-06T07:05:52.254Z,59.04
2019-02-06T07:06:32.860Z,59.04
2019-02-06T07:07:13.518Z,59.33
2019-02-06T07:07:54.133Z,59.33
2019-02-06T07:08:34.740Z,58.94
2019-02-06T07:09:15.335Z,59.23
2019-02-06T07:09:55.941Z,59.23
2019-02-06T07:10:36.570Z,59.52
2019-02-06T07:11:17.160Z,59.13
2019-02-06T07:11:57.761Z,59.04
2019-02-06T07:12:38.361Z,59.52
2019-02-06T07:13:19.022Z,59.13
2019-02-06T07:13:59.606Z,59.42
2019-02-06T07:14:40.219Z,59.42
2019-02-06T07:15:20.818Z,59.04
2019-02-06T07:16:01.438Z,59.33
2019-02-06T07:16:42.028Z,59.33
2019-02-06T07:17:22.631Z,59.04
2019-02-06T07:18:03.228Z,59.04
2019-02-06T07:18:43.888Z,59.33
2019-02-06T07:19:24.428Z,59.33
2019-02-06T07:20:05.070Z,59.33
2019-02-06T07:20:45.710Z,59.04
2019-02-06T07:21:26.322Z,59.33
2019-02-06T07:22:06.942Z,59.33
2019-02-06T07:22:47.607Z,58.84
2019-02-06T07:23:28.238Z,59.04
2019-02-06T07:24:08.846Z,58.65
2019-02-06T07:24:49.438Z,59.23
2019-02-06T07:25:30.090Z,59.23
2019-02-06T07:26:10.701Z,58.84
2019-02-06T07:26:51.326Z,58.84
2019-02-06T07:27:31.912Z,59.23
2019-02-06T07:28:12.514Z,59.33
2019-02-06T07:28:53.145Z,59.04
2019-02-06T07:29:33.750Z,59.23
2019-02-06T07:30:14.368Z,58.84
2019-02-06T07:30:54.976Z,59.23
2019-02-06T07:31:35.579Z,58.84
2019-02-06T07:32:16.157Z,59.04
2019-02-06T07:32:56.817Z,59.04
2019-02-06T07:33:37.433Z,58.94
2019-02-06T07:34:18.084Z,59.13
2019-02-06T07:34:58.682Z,59.04
2019-02-06T07:35:39.294Z,59.04
2019-02-06T07:36:19.900Z,59.04
2019-02-06T07:37:00.486Z,59.13
2019-02-06T07:37:41.094Z,59.33
2019-02-06T07:38:24.075Z,59.13
2019-02-06T07:39:02.295Z,58.84
2019-02-06T07:39:42.895Z,59.23
2019-02-06T07:40:23.546Z,59.04
2019-02-06T07:41:04.157Z,58.94
2019-02-06T07:41:44.764Z,58.94
2019-02-06T07:42:25.363Z,59.13
2019-02-06T07:43:05.973Z,58.94
2019-02-06T07:43:46.624Z,58.75
2019-02-06T07:44:27.255Z,59.04
2019-02-06T07:45:07.927Z,59.13
2019-02-06T07:45:48.546Z,59.13
2019-02-06T07:46:29.142Z,59.13
2019-02-06T07:47:09.743Z,59.33
2019-02-06T07:47:50.359Z,58.94
2019-02-06T07:48:31.070Z,59.23
2019-02-06T07:49:11.585Z,59.23
2019-02-06T07:49:52.178Z,59.52
2019-02-06T07:50:32.783Z,59.23
2019-02-06T07:51:13.379Z,59.23
2019-02-06T07:51:53.986Z,59.52
2019-02-06T07:52:34.584Z,59.23
2019-02-06T07:53:15.188Z,59.52
2019-02-06T07:53:55.799Z,59.13
2019-02-06T07:54:36.847Z,59.13
2019-02-06T07:55:17.453Z,59.26
2019-02-06T07:55:58.051Z,59.61
2019-02-06T07:56:38.652Z,59.23
2019-02-06T07:57:19.266Z,59.33
2019-02-06T07:57:59.862Z,59.04
2019-02-06T07:58:40.461Z,59.23
2019-02-06T07:59:21.066Z,59.23
2019-02-06T08:00:01.675Z,59.23
2019-02-06T08:00:42.275Z,59.04
2019-02-06T08:01:22.882Z,59.13
2019-02-06T08:02:03.473Z,59.33
2019-02-06T08:02:44.088Z,59.61
2019-02-06T08:03:24.695Z,59.13
2019-02-06T08:04:05.311Z,58.84
2019-02-06T08:04:45.902Z,59.33
2019-02-06T08:05:26.528Z,59.33
2019-02-06T08:06:07.134Z,59.36
2019-02-06T08:06:47.757Z,58.84
2019-02-06T08:07:28.419Z,59.42
2019-02-06T08:08:09.041Z,59.33
2019-02-06T08:08:49.650Z,58.84
2019-02-06T08:09:30.249Z,59.42
2019-02-06T08:10:10.836Z,58.87
2019-02-06T08:10:51.446Z,59.23
2019-02-06T08:11:32.037Z,58.84
2019-02-06T08:12:12.637Z,59.26
2019-02-06T08:12:53.254Z,59.26
2019-02-06T08:13:33.928Z,59.06
2019-02-06T08:14:14.528Z,59.33
2019-02-06T08:14:55.227Z,59.36
2019-02-06T08:15:35.836Z,59.16
2019-02-06T08:16:16.454Z,59.36
2019-02-06T08:16:57.037Z,59.36
2019-02-06T08:17:37.645Z,59.04
2019-02-06T08:18:18.253Z,59.06
2019-02-06T08:18:58.880Z,59.06
2019-02-06T08:19:39.493Z,59.13
2019-02-06T08:20:20.108Z,59.06
2019-02-06T08:21:00.694Z,59.16
2019-02-06T08:21:41.283Z,59.13
2019-02-06T08:22:21.923Z,59.13
2019-02-06T08:23:02.501Z,59.36
2019-02-06T08:23:43.103Z,58.94
2019-02-06T08:24:23.768Z,59.04
2019-02-06T08:25:04.381Z,59.13
2019-02-06T08:25:44.972Z,59.26
2019-02-06T08:26:25.568Z,59.13
2019-02-06T08:27:06.162Z,58.94
2019-02-06T08:27:46.739Z,58.94
2019-02-06T08:28:27.329Z,58.94
2019-02-06T08:29:07.926Z,59.33
2019-02-06T08:29:48.528Z,58.94
2019-02-06T08:30:29.138Z,59.33
2019-02-06T08:31:09.746Z,59.04
2019-02-06T08:31:50.325Z,59.33
2019-02-06T08:32:30.927Z,58.87
2019-02-06T08:33:11.516Z,58.69
2019-02-06T08:33:52.116Z,58.84
2019-02-06T08:34:32.710Z,58.78
2019-02-06T08:35:13.319Z,58.87
2019-02-06T08:35:53.922Z,58.84
2019-02-06T08:36:34.570Z,59.23
2019-02-06T08:37:15.128Z,58.87
2019-02-06T08:37:55.729Z,58.87
2019-02-06T08:38:46.916Z,58.84
2019-02-06T08:39:16.946Z,58.84
2019-02-06T08:39:57.545Z,58.94
2019-02-06T08:40:38.151Z,58.65
2019-02-06T08:41:18.910Z,58.75
2019-02-06T08:41:59.515Z,58.84
2019-02-06T08:42:40.133Z,58.87
2019-02-06T08:43:20.790Z,58.87